createdAt,value
2018-10-06T00:00:43.462Z,87.66
2018-10-06T00:03:11.989Z,86.97
2018-10-06T00:05:40.506Z,86.63
2018-10-06T00:08:08.975Z,87.12
2018-10-06T00:10:37.519Z,86.77
2018-10-06T00:13:06.067Z,86.95
2018-10-06T00:15:34.565Z,87.13
2018-10-06T00:18:03.048Z,86.59
2018-10-06T00:20:32.370Z,86.48
2018-10-06T00:23:00.909Z,87.14
2018-10-06T00:25:29.475Z,87.01
2018-10-06T00:27:57.944Z,86.94
2018-10-06T00:30:26.413Z,87.45
2018-10-06T00:32:54.994Z,86.89
2018-10-06T00:35:23.539Z,87.17
2018-10-06T00:37:52.282Z,86.74
2018-10-06T00:40:20.841Z,86.19
2018-10-06T00:42:50.052Z,86.14
2018-10-06T00:45:19.269Z,86.22
2018-10-06T00:47:47.765Z,85.99
2018-10-06T00:50:16.258Z,86.32
2018-10-06T00:52:44.729Z,86.17
2018-10-06T00:55:13.220Z,86.16
2018-10-06T00:57:41.764Z,85.95
2018-10-06T01:00:10.533Z,85.14
2018-10-06T01:02:39.074Z,85.02
2018-10-06T01:05:07.620Z,85.09
2018-10-06T01:07:36.116Z,85.91
2018-10-06T01:10:04.722Z,86.09
2018-10-06T01:12:33.175Z,86.83
2018-10-06T01:15:02.362Z,86.70
2018-10-06T01:17:30.958Z,86.48
2018-10-06T01:19:59.527Z,86.60
2018-10-06T01:22:28.025Z,86.56
2018-10-06T01:24:56.961Z,86.56
2018-10-06T01:27:25.669Z,86.65
2018-10-06T01:29:54.904Z,86.26
2018-10-06T01:32:23.521Z,86.52
2018-10-06T01:34:52.132Z,87.16
2018-10-06T01:37:20.614Z,87.61
2018-10-06T01:39:49.865Z,87.48
2018-10-06T01:42:18.930Z,87.35
2018-10-06T01:44:47.450Z,87.90
2018-10-06T01:47:15.965Z,87.80
2018-10-06T01:49:44.460Z,87.77
2018-10-06T01:52:12.958Z,87.80
2018-10-06T01:54:41.457Z,87.84
2018-10-06T01:57:09.938Z,87.11
2018-10-06T01:59:38.573Z,87.62
2018-10-06T02:02:07.305Z,88.29
2018-10-06T02:04:35.765Z,88.46
2018-10-06T02:07:04.257Z,88.12
2018-10-06T02:09:32.866Z,88.36
2018-10-06T02:12:01.399Z,88.45
2018-10-06T02:14:29.894Z,88.76
2018-10-06T02:16:58.409Z,89.68
2018-10-06T02:19:26.872Z,89.04
2018-10-06T02:21:55.374Z,89.30
2018-10-06T02:24:23.846Z,89.61
2018-10-06T02:26:53.570Z,89.40
2018-10-06T02:29:22.149Z,89.18
2018-10-06T02:31:57.158Z,89.68
2018-10-06T02:34:25.701Z,89.58
2018-10-06T02:36:54.237Z,89.35
2018-10-06T02:39:22.712Z,89.50
2018-10-06T02:41:51.223Z,89.41
2018-10-06T02:44:20.473Z,89.60
2018-10-06T02:46:48.951Z,89.42
2018-10-06T02:49:17.461Z,88.93
2018-10-06T02:51:52.705Z,88.96
2018-10-06T02:54:21.516Z,89.31
2018-10-06T02:56:50.009Z,89.21
2018-10-06T02:59:18.585Z,89.67
2018-10-06T03:01:47.101Z,89.52
2018-10-06T03:04:15.690Z,89.94
2018-10-06T03:06:44.270Z,89.88
2018-10-06T03:09:12.778Z,89.96
2018-10-06T03:11:41.440Z,89.01
2018-10-06T03:14:09.987Z,89.39
2018-10-06T03:16:38.474Z,88.73
2018-10-06T03:19:07.057Z,88.59
2018-10-06T03:21:35.522Z,89.14
2018-10-06T03:24:04.012Z,88.91
2018-10-06T03:26:32.527Z,89.07
2018-10-06T03:29:01.055Z,89.46
2018-10-06T03:31:29.577Z,89.08
2018-10-06T03:33:58.057Z,88.99
2018-10-06T03:36:26.565Z,88.78
2018-10-06T03:38:55.189Z,88.80
2018-10-06T03:41:23.785Z,89.11
2018-10-06T03:43:52.317Z,89.23
2018-10-06T03:46:20.880Z,90.88
2018-10-06T03:48:49.373Z,91.68
2018-10-06T03:51:17.870Z,92.91
2018-10-06T03:53:46.424Z,92.91
2018-10-06T03:56:14.959Z,92.81
2018-10-06T03:58:43.542Z,92.93
2018-10-06T04:01:12.021Z,92.52
2018-10-06T04:03:40.636Z,93.10
2018-10-06T04:06:09.127Z,92.50
2018-10-06T04:08:37.674Z,92.78
2018-10-06T04:11:06.318Z,92.51
2018-10-06T04:13:34.843Z,92.57
2018-10-06T04:16:03.384Z,92.40
2018-10-06T04:18:31.899Z,91.88
2018-10-06T04:21:00.402Z,92.23
2018-10-06T04:23:28.891Z,92.17
2018-10-06T04:25:57.439Z,92.04
2018-10-06T04:28:26.053Z,92.23
2018-10-06T04:30:54.598Z,92.08
2018-10-06T04:33:23.169Z,92.40
2018-10-06T04:35:51.752Z,92.90
2018-10-06T04:38:20.230Z,92.45
2018-10-06T04:40:48.741Z,92.49
2018-10-06T04:43:17.334Z,92.62
2018-10-06T04:45:45.874Z,92.87
2018-10-06T04:48:14.386Z,92.76
2018-10-06T04:50:42.930Z,92.59
2018-10-06T04:53:11.529Z,92.69
2018-10-06T04:55:40.565Z,92.75
2018-10-06T04:58:09.113Z,93.02
2018-10-06T05:00:37.609Z,92.90
2018-10-06T05:03:06.119Z,92.89
2018-10-06T05:05:34.733Z,92.89
2018-10-06T05:08:03.297Z,92.76
2018-10-06T05:10:31.858Z,93.06
2018-10-06T05:13:00.377Z,92.48
2018-10-06T05:15:28.938Z,92.65
2018-10-06T05:17:57.570Z,92.67
2018-10-06T05:20:26.065Z,92.43
2018-10-06T05:22:54.578Z,92.09
2018-10-06T05:25:23.121Z,92.43
2018-10-06T05:27:51.570Z,92.48
2018-10-06T05:30:20.697Z,92.13
2018-10-06T05:32:49.230Z,92.40
2018-10-06T05:35:17.742Z,91.76
2018-10-06T05:37:46.217Z,92.00
2018-10-06T05:40:14.741Z,91.98
2018-10-06T05:42:43.270Z,91.84
2018-10-06T05:45:11.863Z,91.80
2018-10-06T05:47:40.452Z,91.65
2018-10-06T05:50:09.015Z,91.90
2018-10-06T05:52:37.602Z,92.49
2018-10-06T05:55:06.057Z,92.05
2018-10-06T05:57:34.573Z,91.65
2018-10-06T06:00:03.162Z,91.39
2018-10-06T06:02:31.633Z,91.17
2018-10-06T06:05:00.198Z,91.74
2018-10-06T06:07:28.714Z,91.97
2018-10-06T06:09:59.930Z,91.78
2018-10-06T06:12:28.454Z,92.03
2018-10-06T06:14:57.037Z,91.53
2018-10-06T06:17:25.533Z,91.93
2018-10-06T06:19:53.965Z,91.49
2018-10-06T06:22:22.467Z,92.02
2018-10-06T06:24:50.984Z,92.16
2018-10-06T06:27:19.458Z,92.92
2018-10-06T06:29:48.022Z,94.05
2018-10-06T06:32:16.641Z,93.58
2018-10-06T06:34:45.155Z,94.16
2018-10-06T06:37:13.661Z,93.91
2018-10-06T06:39:42.250Z,93.71
2018-10-06T06:42:10.807Z,92.75
2018-10-06T06:44:39.602Z,92.36
2018-10-06T06:47:08.184Z,92.24
2018-10-06T06:49:37.251Z,91.60
2018-10-06T06:52:05.930Z,91.81
2018-10-06T06:54:34.522Z,90.69
2018-10-06T06:57:03.057Z,90.67
2018-10-06T06:59:31.605Z,90.09
2018-10-06T07:02:00.139Z,89.59
2018-10-06T07:04:28.671Z,88.81
2018-10-06T07:06:57.175Z,89.03
2018-10-06T07:09:25.702Z,89.49
2018-10-06T07:11:54.292Z,88.41
2018-10-06T07:14:22.792Z,87.85
2018-10-06T07:16:51.331Z,87.48
2018-10-06T07:19:19.874Z,87.35
2018-10-06T07:21:48.485Z,86.29
2018-10-06T07:24:16.989Z,86.24
2018-10-06T07:26:45.532Z,86.25
2018-10-06T07:29:14.101Z,85.33
2018-10-06T07:31:42.624Z,85.75
2018-10-06T07:34:11.138Z,84.84
2018-10-06T07:36:39.746Z,85.45
2018-10-06T07:39:08.335Z,83.38
2018-10-06T07:41:36.881Z,83.07
2018-10-06T07:44:05.428Z,83.15
2018-10-06T07:46:34.828Z,82.43
2018-10-06T07:49:03.476Z,81.96
2018-10-06T07:51:31.961Z,82.58
2018-10-06T07:54:00.421Z,82.16
2018-10-06T07:56:28.929Z,81.38
2018-10-06T07:58:57.406Z,81.11
2018-10-06T08:01:25.938Z,80.96
2018-10-06T08:03:54.529Z,79.52
2018-10-06T08:06:23.088Z,79.44
2018-10-06T08:08:51.538Z,78.88
2018-10-06T08:11:20.069Z,77.37
2018-10-06T08:13:48.514Z,76.96
2018-10-06T08:16:16.984Z,76.37
2018-10-06T08:18:45.548Z,75.91
2018-10-06T08:21:14.081Z,75.13
2018-10-06T08:23:42.590Z,74.67
2018-10-06T08:26:11.122Z,74.26
2018-10-06T08:28:39.680Z,74.51
2018-10-06T08:31:08.569Z,73.70
2018-10-06T08:33:37.112Z,72.96
2018-10-06T08:36:05.695Z,72.85
2018-10-06T08:38:34.282Z,72.99
2018-10-06T08:41:02.762Z,72.55
2018-10-06T08:43:31.266Z,72.58
2018-10-06T08:45:59.813Z,72.92
2018-10-06T08:48:28.305Z,71.75
2018-10-06T08:50:56.807Z,70.26
2018-10-06T08:53:25.308Z,70.27
2018-10-06T08:55:53.809Z,70.98
2018-10-06T08:58:22.349Z,70.45
2018-10-06T09:00:50.814Z,70.17
2018-10-06T09:03:19.330Z,69.33
2018-10-06T09:05:48.017Z,69.58
2018-10-06T09:08:16.471Z,69.58
2018-10-06T09:10:45.002Z,69.57
2018-10-06T09:13:13.641Z,69.30
2018-10-06T09:15:42.214Z,69.52
2018-10-06T09:18:10.759Z,70.56
2018-10-06T09:20:42.329Z,70.16
2018-10-06T09:23:10.793Z,68.81
2018-10-06T09:25:39.366Z,68.71
2018-10-06T09:28:14.616Z,68.12
2018-10-06T09:30:43.160Z,69.03
2018-10-06T09:33:11.701Z,69.10
2018-10-06T09:35:40.218Z,68.56
2018-10-06T09:38:08.737Z,68.68
2018-10-06T09:40:37.291Z,67.26
2018-10-06T09:43:05.850Z,67.53
2018-10-06T09:45:34.406Z,67.47
2018-10-06T09:48:02.944Z,67.41
2018-10-06T09:50:31.458Z,67.48
2018-10-06T09:52:59.970Z,66.56
2018-10-06T09:55:28.444Z,65.00
2018-10-06T09:57:57.197Z,65.73
2018-10-06T10:00:30.854Z,65.29
2018-10-06T10:03:04.565Z,65.54
2018-10-06T10:05:38.297Z,64.04
2018-10-06T10:08:07.210Z,64.91
2018-10-06T10:10:35.710Z,64.20
2018-10-06T10:13:04.247Z,63.83
2018-10-06T10:15:32.814Z,63.17
2018-10-06T10:18:01.413Z,64.01
2018-10-06T10:20:29.926Z,64.33
2018-10-06T10:22:58.407Z,62.69
2018-10-06T10:25:26.947Z,62.69
2018-10-06T10:27:55.457Z,62.51
2018-10-06T10:30:23.929Z,62.49
2018-10-06T10:32:52.585Z,62.07
2018-10-06T10:35:21.082Z,61.55
2018-10-06T10:37:49.601Z,61.43
2018-10-06T10:40:18.197Z,60.96
2018-10-06T10:42:46.710Z,60.43
2018-10-06T10:45:15.288Z,60.34
2018-10-06T10:47:43.798Z,60.29
2018-10-06T10:50:18.766Z,60.55
2018-10-06T10:52:53.831Z,60.75
2018-10-06T10:55:22.381Z,60.82
2018-10-06T10:57:50.854Z,58.85
2018-10-06T11:00:19.424Z,59.81
2018-10-06T11:02:47.962Z,59.56
2018-10-06T11:05:16.610Z,60.07
2018-10-06T11:07:45.106Z,59.94
2018-10-06T11:10:13.613Z,59.40
2018-10-06T11:12:42.135Z,59.72
2018-10-06T11:15:10.632Z,59.64
2018-10-06T11:17:39.184Z,58.07
2018-10-06T11:20:07.335Z,57.83
2018-10-06T11:22:35.846Z,58.38
2018-10-06T11:25:04.445Z,58.95
2018-10-06T11:27:32.990Z,58.88
2018-10-06T11:30:01.507Z,57.80
2018-10-06T11:32:30.120Z,57.74
2018-10-06T11:34:58.679Z,58.57
2018-10-06T11:37:27.218Z,59.02
2018-10-06T11:39:55.743Z,58.21
2018-10-06T11:42:30.795Z,57.95
2018-10-06T11:44:59.297Z,57.65
2018-10-06T11:47:27.803Z,56.58
2018-10-06T11:49:56.460Z,57.41
2018-10-06T11:52:24.891Z,57.27
2018-10-06T11:54:53.473Z,56.71
2018-10-06T11:57:22.030Z,55.99
2018-10-06T11:59:50.591Z,57.34
2018-10-06T12:02:19.143Z,55.86
2018-10-06T12:04:47.645Z,56.16
2018-10-06T12:07:16.183Z,55.88
2018-10-06T12:09:44.681Z,54.39
2018-10-06T12:12:13.213Z,55.99
2018-10-06T12:14:41.742Z,54.96
2018-10-06T12:17:10.275Z,54.87
2018-10-06T12:19:38.767Z,54.10
2018-10-06T12:22:07.237Z,55.24
2018-10-06T12:24:35.836Z,54.57
2018-10-06T12:27:04.323Z,53.37
2018-10-06T12:29:32.831Z,53.91
2018-10-06T12:32:01.415Z,53.98
2018-10-06T12:34:30.026Z,53.64
2018-10-06T12:36:58.547Z,54.71
2018-10-06T12:39:27.049Z,53.94
2018-10-06T12:41:55.678Z,54.97
2018-10-06T12:44:24.803Z,52.90
2018-10-06T12:46:53.350Z,53.38
2018-10-06T12:49:21.887Z,54.24
2018-10-06T12:51:50.391Z,53.68
2018-10-06T12:54:19.535Z,53.57
2018-10-06T12:56:48.082Z,54.39
2018-10-06T12:59:16.630Z,54.43
2018-10-06T13:01:45.137Z,54.76
2018-10-06T13:04:13.706Z,52.94
2018-10-06T13:06:42.225Z,53.77
2018-10-06T13:09:11.838Z,52.47
2018-10-06T13:11:40.684Z,53.86
2018-10-06T13:14:09.286Z,54.15
2018-10-06T13:16:37.756Z,53.11
2018-10-06T13:19:06.381Z,53.64
2018-10-06T13:21:35.093Z,53.88
2018-10-06T13:24:03.766Z,53.34
2018-10-06T13:26:32.322Z,52.84
2018-10-06T13:29:00.954Z,54.24
2018-10-06T13:31:29.532Z,52.81
2018-10-06T13:33:58.064Z,52.86
2018-10-06T13:36:26.754Z,53.71
2018-10-06T13:38:55.288Z,53.38
2018-10-06T13:41:23.827Z,53.77
2018-10-06T13:43:52.386Z,54.50
2018-10-06T13:46:20.931Z,53.11
2018-10-06T13:48:49.440Z,54.05
2018-10-06T13:51:17.947Z,53.22
2018-10-06T13:53:46.564Z,53.23
2018-10-06T13:56:15.086Z,53.18
2018-10-06T13:58:43.653Z,53.24
2018-10-06T14:01:12.977Z,52.80
2018-10-06T14:03:41.635Z,52.96
2018-10-06T14:06:10.148Z,52.98
2018-10-06T14:08:39.337Z,53.07
2018-10-06T14:11:07.898Z,53.88
2018-10-06T14:13:36.471Z,52.68
2018-10-06T14:16:04.966Z,54.07
2018-10-06T14:18:36.294Z,53.92
2018-10-06T14:21:05.406Z,54.96
2018-10-06T14:23:34.022Z,53.95
2018-10-06T14:26:02.543Z,54.78
2018-10-06T14:28:31.125Z,53.44
2018-10-06T14:30:59.681Z,53.43
2018-10-06T14:33:28.255Z,53.83
2018-10-06T14:35:56.773Z,54.00
2018-10-06T14:38:25.300Z,54.09
2018-10-06T14:40:53.855Z,54.55
2018-10-06T14:43:22.374Z,55.09
2018-10-06T14:45:50.886Z,57.43
2018-10-06T14:48:19.448Z,54.38
2018-10-06T14:50:47.901Z,56.28
2018-10-06T14:53:16.488Z,55.21
2018-10-06T14:55:44.996Z,55.31
2018-10-06T14:58:13.557Z,55.77
2018-10-06T15:00:42.104Z,56.10
2018-10-06T15:03:10.609Z,57.88
2018-10-06T15:05:39.111Z,57.08
2018-10-06T15:08:07.688Z,55.38
2018-10-06T15:10:36.227Z,56.92
2018-10-06T15:13:04.737Z,56.39
2018-10-06T15:15:33.203Z,57.01
2018-10-06T15:18:01.805Z,58.31
2018-10-06T15:20:30.339Z,56.40
2018-10-06T15:22:58.837Z,56.00
2018-10-06T15:25:27.434Z,56.25
2018-10-06T15:27:55.930Z,57.53
2018-10-06T15:30:24.474Z,55.75
2018-10-06T15:32:53.026Z,56.62
2018-10-06T15:35:21.632Z,57.14
2018-10-06T15:37:50.209Z,58.24
2018-10-06T15:40:18.777Z,58.51
2018-10-06T15:42:47.313Z,59.14
2018-10-06T15:45:15.835Z,59.88
2018-10-06T15:47:44.422Z,59.37
2018-10-06T15:50:12.902Z,59.81
2018-10-06T15:52:41.454Z,60.61
2018-10-06T15:55:10.015Z,61.21
2018-10-06T15:57:38.495Z,60.99
2018-10-06T16:00:07.018Z,61.57
2018-10-06T16:02:35.766Z,61.54
2018-10-06T16:05:04.246Z,61.55
2018-10-06T16:07:32.803Z,61.36
2018-10-06T16:10:01.369Z,62.71
2018-10-06T16:12:29.930Z,62.94
2018-10-06T16:14:58.445Z,62.73
2018-10-06T16:17:26.998Z,62.43
2018-10-06T16:19:55.591Z,63.97
2018-10-06T16:22:24.102Z,63.22
2018-10-06T16:24:52.709Z,63.96
2018-10-06T16:27:21.349Z,64.86
2018-10-06T16:29:49.805Z,65.14
2018-10-06T16:32:18.338Z,65.49
2018-10-06T16:34:47.026Z,66.12
2018-10-06T16:37:15.555Z,66.07
2018-10-06T16:39:44.069Z,66.48
2018-10-06T16:42:12.630Z,67.37
2018-10-06T16:44:41.135Z,67.64
2018-10-06T16:47:09.711Z,68.53
2018-10-06T16:49:41.888Z,69.47
2018-10-06T16:52:12.997Z,69.98
2018-10-06T16:54:45.121Z,70.51
2018-10-06T16:57:14.996Z,70.33
2018-10-06T16:59:43.560Z,71.06
2018-10-06T17:02:12.144Z,71.16
2018-10-06T17:04:40.685Z,71.79
2018-10-06T17:07:09.711Z,72.74
2018-10-06T17:09:38.215Z,72.84
2018-10-06T17:12:06.846Z,73.41
2018-10-06T17:14:35.395Z,73.74
2018-10-06T17:17:03.970Z,74.73
2018-10-06T17:19:32.512Z,75.02
2018-10-06T17:22:01.062Z,75.36
2018-10-06T17:24:29.857Z,75.86
2018-10-06T17:26:58.393Z,76.29
2018-10-06T17:29:26.903Z,77.08
2018-10-06T17:31:55.442Z,76.37
2018-10-06T17:34:24.020Z,76.21
2018-10-06T17:36:52.630Z,76.91
2018-10-06T17:39:21.409Z,76.80
2018-10-06T17:41:49.960Z,76.40
2018-10-06T17:44:18.605Z,75.55
2018-10-06T17:46:47.174Z,75.02
2018-10-06T17:49:15.730Z,74.35
2018-10-06T17:51:44.312Z,73.73
2018-10-06T17:54:12.904Z,73.04
2018-10-06T17:56:48.090Z,73.20
2018-10-06T17:59:16.696Z,72.70
2018-10-06T18:01:45.253Z,73.07
2018-10-06T18:04:14.364Z,72.36
2018-10-06T18:06:43.001Z,72.87
2018-10-06T18:09:11.532Z,73.11
2018-10-06T18:11:40.165Z,73.00
2018-10-06T18:14:08.700Z,73.09
2018-10-06T18:16:37.310Z,73.10
2018-10-06T18:19:06.065Z,73.54
2018-10-06T18:21:34.805Z,74.56
2018-10-06T18:24:03.209Z,74.16
2018-10-06T18:26:31.866Z,74.47
2018-10-06T18:29:00.482Z,74.56
2018-10-06T18:31:28.974Z,75.31
2018-10-06T18:33:57.519Z,75.54
2018-10-06T18:36:26.163Z,76.52
2018-10-06T18:38:54.574Z,76.61
2018-10-06T18:41:23.087Z,76.85
2018-10-06T18:43:51.807Z,76.98
2018-10-06T18:46:20.247Z,77.15
2018-10-06T18:48:48.844Z,77.26
2018-10-06T18:51:17.333Z,78.03
2018-10-06T18:53:45.866Z,77.65
2018-10-06T18:56:14.418Z,77.76
2018-10-06T18:58:42.938Z,78.79
2018-10-06T19:01:11.482Z,78.64
2018-10-06T19:03:40.130Z,78.65
2018-10-06T19:06:08.602Z,78.41
2018-10-06T19:08:37.177Z,78.65
2018-10-06T19:11:05.932Z,79.25
2018-10-06T19:13:34.547Z,78.70
2018-10-06T19:16:03.269Z,78.35
2018-10-06T19:18:31.750Z,79.02
2018-10-06T19:21:00.306Z,78.57
2018-10-06T19:23:28.815Z,78.21
2018-10-06T19:25:57.290Z,78.36
2018-10-06T19:28:25.854Z,77.96
2018-10-06T19:30:54.412Z,78.37
2018-10-06T19:33:23.006Z,78.55
2018-10-06T19:35:51.585Z,78.58
2018-10-06T19:38:20.058Z,78.87
2018-10-06T19:40:48.618Z,79.08
2018-10-06T19:43:17.133Z,78.87
2018-10-06T19:45:45.767Z,79.62
2018-10-06T19:48:14.287Z,79.42
2018-10-06T19:50:42.867Z,79.71
2018-10-06T19:53:11.426Z,79.62
2018-10-06T19:55:40.124Z,79.97
2018-10-06T19:58:08.641Z,80.14
2018-10-06T20:00:37.220Z,80.07
2018-10-06T20:03:05.742Z,80.41
2018-10-06T20:05:34.288Z,80.62
2018-10-06T20:08:02.826Z,80.91
2018-10-06T20:10:31.376Z,81.39
2018-10-06T20:12:59.950Z,81.15
2018-10-06T20:15:28.483Z,81.54
2018-10-06T20:17:57.007Z,81.54
2018-10-06T20:20:25.559Z,82.28
2018-10-06T20:22:54.036Z,82.39
2018-10-06T20:25:22.530Z,81.84
2018-10-06T20:27:51.118Z,81.86
2018-10-06T20:30:19.680Z,82.39
2018-10-06T20:32:48.284Z,82.46
2018-10-06T20:35:16.867Z,83.23
2018-10-06T20:37:45.377Z,84.02
2018-10-06T20:40:13.964Z,84.56
2018-10-06T20:42:42.481Z,85.18
2018-10-06T20:45:11.063Z,84.84
2018-10-06T20:47:39.620Z,86.03
2018-10-06T20:50:08.268Z,85.84
2018-10-06T20:52:36.770Z,86.09
2018-10-06T20:55:05.385Z,86.07
2018-10-06T20:57:33.889Z,86.16
2018-10-06T21:00:02.435Z,86.19
2018-10-06T21:02:30.950Z,86.83
2018-10-06T21:04:59.514Z,87.44
2018-10-06T21:07:28.110Z,88.55
2018-10-06T21:09:56.628Z,89.83
2018-10-06T21:12:25.160Z,89.90
2018-10-06T21:14:53.747Z,90.88
2018-10-06T21:17:22.257Z,90.52
2018-10-06T21:19:51.143Z,91.17
2018-10-06T21:22:19.705Z,91.36
2018-10-06T21:24:48.273Z,91.68
2018-10-06T21:27:16.862Z,91.95
2018-10-06T21:29:45.711Z,92.48
2018-10-06T21:32:14.093Z,91.79
2018-10-06T21:34:42.677Z,92.16
2018-10-06T21:37:11.199Z,92.68
2018-10-06T21:39:39.743Z,92.53
2018-10-06T21:42:08.318Z,93.06
2018-10-06T21:44:36.889Z,92.40
2018-10-06T21:47:05.462Z,92.73
2018-10-06T21:49:34.035Z,92.70
2018-10-06T21:52:02.553Z,92.90
2018-10-06T21:54:31.089Z,92.29
2018-10-06T21:56:59.681Z,92.57
2018-10-06T21:59:28.251Z,92.05
2018-10-06T22:01:56.808Z,92.44
2018-10-06T22:04:25.442Z,93.18
2018-10-06T22:06:53.933Z,92.86
2018-10-06T22:09:22.451Z,92.89
2018-10-06T22:11:50.996Z,92.38
2018-10-06T22:14:19.519Z,93.03
2018-10-06T22:16:48.011Z,93.10
2018-10-06T22:19:16.519Z,93.20
2018-10-06T22:21:45.226Z,92.47
2018-10-06T22:24:13.834Z,92.74
2018-10-06T22:26:42.391Z,93.01
2018-10-06T22:29:10.984Z,93.43
2018-10-06T22:31:40.142Z,93.09
2018-10-06T22:34:08.743Z,93.52
2018-10-06T22:36:37.318Z,93.25
2018-10-06T22:39:07.741Z,93.02
2018-10-06T22:41:36.349Z,93.23
2018-10-06T22:44:04.964Z,93.59
2018-10-06T22:46:33.485Z,93.02
2018-10-06T22:49:02.119Z,92.75
2018-10-06T22:51:30.750Z,93.59
2018-10-06T22:53:59.348Z,93.39
2018-10-06T22:56:27.879Z,93.62
2018-10-06T22:58:56.397Z,93.09
2018-10-06T23:01:25.104Z,93.12
2018-10-06T23:03:53.658Z,92.72
2018-10-06T23:06:22.233Z,92.69
2018-10-06T23:08:50.733Z,92.53
2018-10-06T23:11:19.291Z,92.79
2018-10-06T23:13:47.827Z,92.54
2018-10-06T23:16:16.510Z,92.97
2018-10-06T23:18:45.094Z,92.68
2018-10-06T23:21:13.698Z,92.65
2018-10-06T23:23:42.247Z,93.13
2018-10-06T23:26:10.844Z,92.93
2018-10-06T23:28:39.526Z,92.59
2018-10-06T23:31:08.059Z,92.72
2018-10-06T23:33:36.716Z,92.21
2018-10-06T23:36:05.255Z,92.50
2018-10-06T23:38:33.769Z,92.49
2018-10-06T23:41:02.257Z,92.06
2018-10-06T23:43:30.771Z,91.87
2018-10-06T23:45:59.255Z,92.79
2018-10-06T23:48:27.814Z,92.15
2018-10-06T23:50:56.297Z,91.79
2018-10-06T23:53:24.793Z,92.27
2018-10-06T23:55:53.333Z,91.82
2018-10-06T23:58:21.837Z,91.89
